createdAt,value
2022-08-28T00:03:30.307Z,78.47
2022-08-28T00:13:33.329Z,79.82
2022-08-28T00:23:43.203Z,80.82
2022-08-28T00:33:48.155Z,81.20
2022-08-28T00:44:05.833Z,82.91
2022-08-28T00:54:09.220Z,83.61
2022-08-28T01:04:17.811Z,84.77
2022-08-28T01:14:23.295Z,86.35
2022-08-28T01:24:28.379Z,87.29
2022-08-28T01:34:32.306Z,88.27
2022-08-28T01:44:36.693Z,88.62
2022-08-28T01:54:39.875Z,89.49
2022-08-28T02:04:48.030Z,89.53
2022-08-28T02:14:51.327Z,89.97
2022-08-28T02:24:55.711Z,91.98
2022-08-28T02:34:58.702Z,93.13
2022-08-28T02:45:03.175Z,93.87
2022-08-28T02:55:07.597Z,94.64
2022-08-28T03:05:12.677Z,95.75
2022-08-28T03:15:15.714Z,95.39
2022-08-28T03:25:20.342Z,95.00
2022-08-28T03:35:23.516Z,95.71
2022-08-28T03:45:27.927Z,95.99
2022-08-28T03:55:30.972Z,96.98
2022-08-28T04:05:38.593Z,97.27
2022-08-28T04:15:42.430Z,98.70
2022-08-28T04:25:46.937Z,99.66
2022-08-28T04:35:50.293Z,100.00
2022-08-28T04:45:54.698Z,100.00
2022-08-28T04:55:59.127Z,100.00
2022-08-28T05:06:04.652Z,100.00
2022-08-28T05:16:08.046Z,100.00
2022-08-28T05:26:14.536Z,100.00
2022-08-28T05:36:19.684Z,100.00
2022-08-28T05:46:23.903Z,100.00
2022-08-28T05:56:29.791Z,100.00
2022-08-28T06:06:37.136Z,100.00
2022-08-28T06:16:43.927Z,100.00
2022-08-28T06:26:48.233Z,98.11
2022-08-28T06:36:54.011Z,96.43
2022-08-28T06:46:59.122Z,93.79
2022-08-28T06:57:02.157Z,91.25
2022-08-28T07:07:07.260Z,89.69
2022-08-28T07:17:10.395Z,87.46
2022-08-28T07:27:18.764Z,84.82
2022-08-28T07:37:22.029Z,83.69
2022-08-28T07:47:30.015Z,79.12
2022-08-28T07:57:33.754Z,77.51
2022-08-28T08:07:39.893Z,74.99
2022-08-28T08:17:45.130Z,71.50
2022-08-28T08:27:51.235Z,67.55
2022-08-28T08:37:54.190Z,66.61
2022-08-28T08:47:58.875Z,65.07
2022-08-28T08:58:07.899Z,65.74
2022-08-28T09:08:23.088Z,65.13
2022-08-28T09:18:29.255Z,63.23
2022-08-28T09:28:38.095Z,62.66
2022-08-28T09:38:41.038Z,64.42
2022-08-28T09:48:47.627Z,62.26
2022-08-28T09:58:54.707Z,61.22
2022-08-28T10:09:10.714Z,58.13
2022-08-28T10:19:23.012Z,56.23
2022-08-28T10:29:39.775Z,58.07
2022-08-28T10:39:51.745Z,56.51
2022-08-28T10:50:01.922Z,52.41
2022-08-28T11:00:10.859Z,51.66
2022-08-28T11:10:22.510Z,52.34
2022-08-28T11:20:29.062Z,53.25
2022-08-28T11:30:36.378Z,49.35
2022-08-28T11:40:56.571Z,47.40
2022-08-28T11:51:04.543Z,47.25
2022-08-28T12:01:10.827Z,48.48
2022-08-28T12:11:56.346Z,46.93
2022-08-28T12:22:05.298Z,45.93
2022-08-28T12:32:26.246Z,46.08
2022-08-28T12:42:34.257Z,44.72
2022-08-28T12:52:49.029Z,43.11
2022-08-28T13:02:54.522Z,44.21
2022-08-28T13:13:05.714Z,42.67
2022-08-28T13:23:09.339Z,42.52
2022-08-28T13:33:23.193Z,43.96
2022-08-28T13:43:28.855Z,42.04
2022-08-28T13:53:33.804Z,41.80
2022-08-28T14:03:37.870Z,42.17
2022-08-28T14:13:47.444Z,41.22
2022-08-28T14:24:00.314Z,43.13
2022-08-28T14:34:06.424Z,40.92
2022-08-28T14:44:10.206Z,37.18
2022-08-28T14:54:16.602Z,38.42
2022-08-28T15:04:22.762Z,37.30
2022-08-28T15:14:28.075Z,36.82
2022-08-28T15:24:34.375Z,36.77
2022-08-28T15:34:38.773Z,40.31
2022-08-28T15:44:42.003Z,40.68
2022-08-28T15:54:46.559Z,40.68
2022-08-28T16:04:53.178Z,40.41
2022-08-28T16:14:57.858Z,41.64
2022-08-28T16:25:01.699Z,43.55
2022-08-28T16:35:07.401Z,47.16
2022-08-28T16:45:12.039Z,48.17
2022-08-28T16:55:16.630Z,48.43
2022-08-28T17:05:20.670Z,48.57
2022-08-28T17:15:24.850Z,48.15
2022-08-28T17:25:28.501Z,48.57
2022-08-28T17:35:32.912Z,49.93
2022-08-28T17:45:45.206Z,49.48
2022-08-28T17:55:49.568Z,51.29
2022-08-28T18:05:58.834Z,53.23
2022-08-28T18:16:06.709Z,54.43
2022-08-28T18:26:11.417Z,56.53
2022-08-28T18:36:16.876Z,57.12
2022-08-28T18:46:19.899Z,57.56
2022-08-28T18:56:24.253Z,58.99
2022-08-28T19:06:31.289Z,60.02
2022-08-28T19:16:36.296Z,61.06
2022-08-28T19:26:39.546Z,62.04
2022-08-28T19:36:43.888Z,64.42
2022-08-28T19:46:47.225Z,65.13
2022-08-28T19:56:51.736Z,65.77
2022-08-28T20:06:54.813Z,68.21
2022-08-28T20:17:00.526Z,69.51
2022-08-28T20:27:03.671Z,70.59
2022-08-28T20:37:08.047Z,70.85
2022-08-28T20:47:11.018Z,72.88
2022-08-28T20:57:21.101Z,74.34
2022-08-28T21:07:26.058Z,75.60
2022-08-28T21:17:31.613Z,76.79
2022-08-28T21:27:34.991Z,77.89
2022-08-28T21:37:40.428Z,79.29
2022-08-28T21:47:43.710Z,79.84
2022-08-28T21:57:48.107Z,80.94
2022-08-28T22:07:51.070Z,81.98
2022-08-28T22:17:55.562Z,82.92
2022-08-28T22:27:58.577Z,83.52
2022-08-28T22:38:02.953Z,84.91
2022-08-28T22:48:06.741Z,86.02
2022-08-28T22:58:12.882Z,86.84
2022-08-28T23:08:16.113Z,87.88
2022-08-28T23:18:21.155Z,88.77
2022-08-28T23:28:24.159Z,89.96
2022-08-28T23:38:28.633Z,90.04
2022-08-28T23:48:32.141Z,91.87
2022-08-28T23:58:36.846Z,92.19
